Time;durP1;ratioP1;P1;durP2;ratioP2;P2;SDS_P1;SDS_P2;PMS_P1;PMS_P2;Temp;Humidity;BMP_temperature;BMP_pressure;BME280_temperature;BME280_humidity;BME280_pressure;Samples;Min_cycle;Max_cycle;Signal;HPM_P1;HPM_P2
2023/07/30 00:01:32;;;;;;;10.13;5.43;;;16.00;94.30;;;;;;5034687;28;20579;-70
2023/07/30 00:03:58;;;;;;;8.07;5.77;;;16.00;95.40;;;;;;5035225;28;20182;-74
2023/07/30 00:06:24;;;;;;;12.70;4.90;;;16.00;94.20;;;;;;5032813;28;20918;-69
2023/07/30 00:08:50;;;;;;;12.27;5.00;;;15.90;94.20;;;;;;5034104;28;20438;-72
2023/07/30 00:11:16;;;;;;;5.03;4.50;;;15.90;94.20;;;;;;5034654;28;20556;-77
2023/07/30 00:13:41;;;;;;;5.63;5.00;;;15.90;94.20;;;;;;5031939;28;20207;-69
2023/07/30 00:16:07;;;;;;;8.50;4.70;;;15.80;94.10;;;;;;5032646;28;20255;-70
2023/07/30 00:18:33;;;;;;;7.90;6.30;;;15.90;94.20;;;;;;5018579;28;20208;-69
2023/07/30 00:20:59;;;;;;;8.77;4.70;;;15.90;94.20;;;;;;5015046;28;20168;-76
2023/07/30 00:23:24;;;;;;;7.80;5.17;;;15.80;94.20;;;;;;5014744;28;20168;-75
2023/07/30 00:25:50;;;;;;;8.70;4.97;;;15.80;94.20;;;;;;5014321;28;20208;-75
2023/07/30 00:28:16;;;;;;;10.50;5.00;;;15.80;94.10;;;;;;5021587;28;20651;-73
2023/07/30 00:30:41;;;;;;;6.50;4.40;;;15.80;94.10;;;;;;5034286;28;20176;-75
2023/07/30 00:33:07;;;;;;;9.20;4.67;;;15.80;94.10;;;;;;5032477;28;20182;-75
2023/07/30 00:35:32;;;;;;;7.57;4.90;;;15.70;94.10;;;;;;5033674;28;20170;-70
2023/07/30 00:37:58;;;;;;;11.93;4.77;;;15.70;94.20;;;;;;5033356;28;20547;-70
2023/07/30 00:40:24;;;;;;;10.33;6.17;;;15.70;94.10;;;;;;5033577;28;20683;-75
2023/07/30 00:42:49;;;;;;;9.13;5.77;;;15.80;94.10;;;;;;5016995;28;20593;-70
2023/07/30 00:45:15;;;;;;;6.83;4.67;;;15.70;94.10;;;;;;5012031;28;20292;-76
2023/07/30 00:47:42;;;;;;;9.40;4.70;;;15.80;94.20;;;;;;5030078;28;20194;-71
2023/07/30 00:50:08;;;;;;;6.77;5.30;;;15.80;94.20;;;;;;5033680;28;20183;-69
2023/07/30 00:52:34;;;;;;;6.00;4.87;;;15.70;94.10;;;;;;5033743;28;20433;-71
2023/07/30 00:55:02;;;;;;;10.00;4.60;;;15.70;94.10;;;;;;5034004;28;20890;-76
2023/07/30 00:57:29;;;;;;;7.50;4.90;;;15.70;94.10;;;;;;5034038;28;20427;-70
2023/07/30 00:59:56;;;;;;;8.70;5.17;;;15.80;94.20;;;;;;5034236;28;20404;-76
2023/07/30 01:02:22;;;;;;;8.40;5.23;;;15.70;94.10;;;;;;5034148;28;20879;-76
2023/07/30 01:04:49;;;;;;;9.63;5.70;;;15.70;94.10;;;;;;5033583;28;20446;-71
2023/07/30 01:07:15;;;;;;;6.83;5.27;;;15.70;94.10;;;;;;5032492;28;20496;-71
2023/07/30 01:09:41;;;;;;;7.17;5.00;;;15.70;94.10;;;;;;5031696;28;20798;-76
2023/07/30 01:12:07;;;;;;;9.83;5.90;;;15.70;94.10;;;;;;5021093;28;20180;-74
2023/07/30 01:14:35;;;;;;;9.77;5.80;;;15.80;98.50;;;;;;5015189;28;20522;-70
2023/07/30 01:17:00;;;;;;;14.73;6.27;;;15.80;99.90;;;;;;5032909;28;20430;-75
2023/07/30 01:19:26;;;;;;;5.63;5.00;;;15.90;99.90;;;;;;5033571;28;20391;-73
2023/07/30 01:21:52;;;;;;;9.60;6.00;;;15.90;99.90;;;;;;5033248;28;20524;-76
2023/07/30 01:24:18;;;;;;;10.23;6.80;;;15.90;99.90;;;;;;5033003;28;20182;-75
2023/07/30 01:26:46;;;;;;;12.20;5.90;;;16.00;99.90;;;;;;5032401;28;20701;-75
2023/07/30 01:29:19;;;;;;;7.40;5.53;;;16.00;99.90;;;;;;5033130;28;20179;-75
2023/07/30 01:31:47;;;;;;;11.60;6.27;;;16.10;99.90;;;;;;5033467;28;20452;-76
2023/07/30 01:34:13;;;;;;;9.23;5.70;;;16.10;99.90;;;;;;5033609;28;20405;-72
2023/07/30 01:36:40;;;;;;;9.57;5.83;;;16.10;99.90;;;;;;5032034;28;20423;-70
2023/07/30 01:39:06;;;;;;;7.13;5.60;;;16.20;99.90;;;;;;5031278;28;20529;-76
2023/07/30 01:41:32;;;;;;;10.90;6.47;;;16.20;99.90;;;;;;5033573;28;20885;-72
2023/07/30 01:43:57;;;;;;;7.47;5.77;;;16.20;99.90;;;;;;5031811;28;20456;-75
2023/07/30 01:46:23;;;;;;;10.60;6.63;;;16.20;99.90;;;;;;5032405;28;20245;-75
2023/07/30 01:48:49;;;;;;;7.50;5.90;;;16.20;99.90;;;;;;5033298;28;20516;-69
2023/07/30 01:51:14;;;;;;;9.13;5.50;;;16.20;99.90;;;;;;5027640;28;20176;-70
2023/07/30 01:53:40;;;;;;;8.23;6.50;;;16.20;99.90;;;;;;5012462;28;20603;-70
2023/07/30 01:56:06;;;;;;;9.23;6.83;;;16.20;99.90;;;;;;5012480;28;20168;-72
2023/07/30 01:58:32;;;;;;;9.40;5.50;;;16.20;99.90;;;;;;5013126;28;20192;-71
2023/07/30 02:00:57;;;;;;;15.27;6.70;;;16.20;99.90;;;;;;5013099;28;20940;-75
2023/07/30 02:03:23;;;;;;;7.80;6.10;;;16.20;99.90;;;;;;5013634;28;20172;-72
2023/07/30 02:05:49;;;;;;;11.13;6.40;;;16.30;99.90;;;;;;5013852;28;20215;-72
2023/07/30 02:08:15;;;;;;;12.27;6.20;;;16.30;99.90;;;;;;5013199;28;20207;-75
2023/07/30 02:10:41;;;;;;;8.30;6.40;;;16.30;99.90;;;;;;5013604;28;20494;-75
2023/07/30 02:13:07;;;;;;;10.60;7.40;;;16.30;99.90;;;;;;5013139;28;20479;-72
2023/07/30 02:15:33;;;;;;;9.77;5.63;;;16.30;99.90;;;;;;5011477;28;20172;-71
2023/07/30 02:17:58;;;;;;;8.37;6.20;;;16.40;99.90;;;;;;5014362;28;20234;-72
2023/07/30 02:20:24;;;;;;;9.97;6.80;;;16.40;99.90;;;;;;5035057;28;20203;-75
2023/07/30 02:22:50;;;;;;;9.80;5.80;;;16.40;99.90;;;;;;5025573;28;20176;-76
2023/07/30 02:25:15;;;;;;;9.50;6.57;;;16.40;99.90;;;;;;5014990;28;20668;-70
2023/07/30 02:27:41;;;;;;;11.83;6.27;;;16.40;99.90;;;;;;5017116;28;20180;-75
2023/07/30 02:30:07;;;;;;;8.80;5.90;;;16.40;99.90;;;;;;5015389;28;20407;-71
2023/07/30 02:32:33;;;;;;;7.77;5.00;;;16.40;99.90;;;;;;5024648;28;20174;-70
2023/07/30 02:34:58;;;;;;;9.60;5.10;;;16.40;99.90;;;;;;5035579;28;20175;-75
2023/07/30 02:37:24;;;;;;;8.63;5.90;;;16.40;99.90;;;;;;5035642;28;20199;-72
2023/07/30 02:39:49;;;;;;;6.67;5.47;;;16.40;99.90;;;;;;5037127;28;20171;-75
2023/07/30 02:42:15;;;;;;;8.50;5.50;;;16.40;99.90;;;;;;5036592;28;20172;-71
2023/07/30 02:44:41;;;;;;;10.50;5.70;;;16.50;99.90;;;;;;5036345;28;20282;-75
2023/07/30 02:47:06;;;;;;;8.07;5.90;;;16.40;99.90;;;;;;5034297;28;20285;-70
2023/07/30 02:49:32;;;;;;;7.67;5.27;;;16.40;99.90;;;;;;5036620;28;20552;-72
2023/07/30 02:51:58;;;;;;;6.43;5.03;;;16.50;99.90;;;;;;5036587;28;20187;-71
2023/07/30 02:54:23;;;;;;;6.40;5.53;;;16.40;99.90;;;;;;5035932;28;20194;-74
2023/07/30 02:56:50;;;;;;;12.07;6.63;;;16.50;99.90;;;;;;5035392;28;20224;-71
2023/07/30 02:59:16;;;;;;;9.00;5.50;;;16.40;99.90;;;;;;5036295;28;20810;-75
2023/07/30 03:01:42;;;;;;;9.23;5.20;;;16.40;99.90;;;;;;5036143;28;20184;-70
2023/07/30 03:04:07;;;;;;;6.80;5.07;;;16.40;99.90;;;;;;5034093;28;20250;-70
2023/07/30 03:06:33;;;;;;;6.33;5.20;;;16.40;99.90;;;;;;5035135;28;20212;-71
2023/07/30 03:08:59;;;;;;;7.33;6.30;;;16.40;99.90;;;;;;5036594;28;20250;-72
2023/07/30 03:11:24;;;;;;;11.90;6.80;;;16.40;99.90;;;;;;5036388;28;20171;-75
2023/07/30 03:13:50;;;;;;;7.43;6.57;;;16.40;99.90;;;;;;5034862;28;20191;-75
2023/07/30 03:16:16;;;;;;;11.50;6.53;;;16.30;99.90;;;;;;5034969;28;20259;-72
2023/07/30 03:18:41;;;;;;;8.50;5.97;;;16.30;99.90;;;;;;5035355;28;20559;-75
2023/07/30 03:21:07;;;;;;;8.30;6.30;;;16.30;99.90;;;;;;5027839;28;20230;-70
2023/07/30 03:23:32;;;;;;;9.57;5.70;;;16.30;99.90;;;;;;5035893;28;20202;-71
2023/07/30 03:26:00;;;;;;;8.93;6.30;;;16.30;99.90;;;;;;5034877;28;20239;-75
2023/07/30 03:28:26;;;;;;;8.87;6.20;;;16.30;99.90;;;;;;5034432;28;20218;-75
2023/07/30 03:30:51;;;;;;;10.37;6.73;;;16.30;99.90;;;;;;5035597;28;20437;-75
2023/07/30 03:33:17;;;;;;;10.33;6.23;;;16.30;99.90;;;;;;5034173;28;20183;-73
2023/07/30 03:35:43;;;;;;;9.63;5.80;;;16.30;99.90;;;;;;5034865;28;20178;-74
2023/07/30 03:38:08;;;;;;;10.80;6.53;;;16.20;99.90;;;;;;5035402;28;20201;-75
2023/07/30 03:40:34;;;;;;;7.63;6.83;;;16.30;99.90;;;;;;5035579;28;20220;-74
2023/07/30 03:42:59;;;;;;;10.60;6.53;;;16.30;99.90;;;;;;5034462;28;20175;-71
2023/07/30 03:45:25;;;;;;;8.60;6.37;;;16.30;99.90;;;;;;5033546;28;20667;-71
2023/07/30 03:47:51;;;;;;;7.73;6.90;;;16.30;99.90;;;;;;5025095;28;20357;-74
2023/07/30 03:50:16;;;;;;;11.53;7.30;;;16.30;99.90;;;;;;5015142;28;20184;-73
2023/07/30 03:52:42;;;;;;;9.07;7.07;;;16.30;99.90;;;;;;5015492;28;20234;-71
2023/07/30 03:55:08;;;;;;;9.70;6.80;;;16.30;99.90;;;;;;5013785;28;20629;-73
2023/07/30 03:57:33;;;;;;;8.73;7.10;;;16.30;99.90;;;;;;5014422;28;20250;-74
2023/07/30 04:00:00;;;;;;;8.97;7.40;;;16.20;99.90;;;;;;5015221;28;20200;-75
2023/07/30 04:02:26;;;;;;;7.67;6.90;;;16.20;99.90;;;;;;5023597;28;20536;-74
2023/07/30 04:04:52;;;;;;;8.87;7.97;;;16.10;99.90;;;;;;5034754;28;20461;-74
2023/07/30 04:07:17;;;;;;;8.30;7.37;;;16.10;99.90;;;;;;5034489;28;20926;-75
2023/07/30 04:09:43;;;;;;;7.03;6.33;;;16.10;99.90;;;;;;5033466;28;20270;-75
2023/07/30 04:12:09;;;;;;;10.07;7.47;;;16.10;99.90;;;;;;5034997;28;20179;-74
2023/07/30 04:14:34;;;;;;;10.33;6.87;;;16.10;99.90;;;;;;5034567;28;20254;-76
2023/07/30 04:17:00;;;;;;;7.63;6.70;;;16.00;99.90;;;;;;5032035;28;20257;-74
2023/07/30 04:19:25;;;;;;;10.70;8.40;;;16.00;99.90;;;;;;5034931;28;20179;-74
2023/07/30 04:21:51;;;;;;;10.00;9.00;;;16.10;99.90;;;;;;5034828;28;20182;-70
2023/07/30 04:24:17;;;;;;;10.40;9.20;;;16.00;99.90;;;;;;5034860;28;20176;-70
2023/07/30 04:26:43;;;;;;;12.97;9.83;;;16.00;99.90;;;;;;5022165;28;20557;-73
2023/07/30 04:29:10;;;;;;;14.10;11.70;;;16.00;99.90;;;;;;5014209;28;20183;-71
2023/07/30 04:31:35;;;;;;;16.80;13.27;;;16.10;99.90;;;;;;5033247;28;20188;-70
2023/07/30 04:34:01;;;;;;;18.33;13.63;;;16.10;99.90;;;;;;5034362;28;20440;-73
2023/07/30 04:36:27;;;;;;;17.70;13.20;;;16.10;99.90;;;;;;5033629;28;20262;-75
2023/07/30 04:38:54;;;;;;;15.03;13.47;;;16.10;1.00;;;;;;5033318;28;20172;-70
2023/07/30 04:41:20;;;;;;;15.00;13.40;;;16.10;1.00;;;;;;5034456;28;20171;-74
2023/07/30 04:43:46;;;;;;;19.60;14.33;;;16.10;1.00;;;;;;5033536;28;20402;-72
2023/07/30 04:46:11;;;;;;;21.17;16.10;;;16.20;1.00;;;;;;5033281;28;20460;-71
2023/07/30 04:48:37;;;;;;;16.87;14.13;;;16.20;1.00;;;;;;5034060;28;20192;-69
2023/07/30 04:51:03;;;;;;;17.40;15.17;;;16.20;1.00;;;;;;5033491;28;20176;-70
2023/07/30 04:53:29;;;;;;;17.13;13.60;;;16.30;1.00;;;;;;5034208;28;20576;-73
2023/07/30 04:55:58;;;;;;;15.53;13.93;;;16.30;1.00;;;;;;5032577;28;20610;-75
2023/07/30 04:58:23;;;;;;;19.17;15.03;;;16.20;1.00;;;;;;5034093;28;20914;-74
2023/07/30 05:00:49;;;;;;;15.30;13.73;;;16.20;1.00;;;;;;5034241;28;20452;-74
2023/07/30 05:03:15;;;;;;;15.97;13.43;;;16.40;1.00;;;;;;5034074;28;20751;-72
2023/07/30 05:05:41;;;;;;;15.50;13.97;;;16.40;1.00;;;;;;5032669;28;20449;-74
2023/07/30 05:08:07;;;;;;;16.10;12.67;;;16.50;1.00;;;;;;5032814;28;20191;-75
2023/07/30 05:10:33;;;;;;;19.47;12.37;;;16.40;1.00;;;;;;5033653;28;20485;-72
2023/07/30 05:12:59;;;;;;;16.87;13.70;;;16.50;1.00;;;;;;5032960;28;20549;-70
2023/07/30 05:15:26;;;;;;;19.60;13.13;;;16.50;1.00;;;;;;5032885;28;20532;-70
2023/07/30 05:17:51;;;;;;;15.70;11.70;;;16.60;1.00;;;;;;5033716;28;20188;-74
2023/07/30 05:20:17;;;;;;;15.00;12.87;;;16.60;1.00;;;;;;5034053;28;20512;-71
2023/07/30 05:22:43;;;;;;;14.10;11.50;;;16.70;1.00;;;;;;5019227;28;20188;-72
2023/07/30 05:25:08;;;;;;;18.13;12.90;;;16.80;1.00;;;;;;5023686;28;20199;-73
2023/07/30 05:27:35;;;;;;;12.33;10.97;;;16.70;1.00;;;;;;5033045;28;20179;-71
2023/07/30 05:30:01;;;;;;;17.67;12.50;;;16.70;1.00;;;;;;5033737;28;20174;-73
2023/07/30 05:32:27;;;;;;;15.73;12.47;;;16.70;1.00;;;;;;5033862;28;20399;-70
2023/07/30 05:34:52;;;;;;;13.90;11.30;;;16.80;1.00;;;;;;5033470;28;20190;-73
2023/07/30 05:37:18;;;;;;;14.87;11.73;;;16.80;1.00;;;;;;5032168;28;20278;-70
2023/07/30 05:39:44;;;;;;;17.60;13.20;;;16.80;1.00;;;;;;5032082;28;20179;-73
2023/07/30 05:42:10;;;;;;;15.97;11.60;;;16.90;1.00;;;;;;5033823;28;20501;-73
2023/07/30 05:44:35;;;;;;;17.47;12.67;;;16.80;1.00;;;;;;5033062;28;20769;-71
2023/07/30 05:47:01;;;;;;;16.30;11.20;;;16.90;1.00;;;;;;5032416;28;20240;-70
2023/07/30 05:49:26;;;;;;;17.77;12.00;;;16.90;1.00;;;;;;5031658;28;20223;-72
2023/07/30 05:51:52;;;;;;;21.67;12.37;;;17.00;1.00;;;;;;5032253;28;20179;-66
2023/07/30 05:54:18;;;;;;;15.20;12.00;;;17.00;1.00;;;;;;5032918;28;20313;-71
2023/07/30 05:56:43;;;;;;;20.47;12.00;;;17.10;1.00;;;;;;5031032;28;20240;-70
2023/07/30 05:59:09;;;;;;;18.03;12.30;;;17.10;1.00;;;;;;5033049;28;20242;-68
2023/07/30 06:01:35;;;;;;;24.70;12.10;;;17.10;1.00;;;;;;5033130;28;20167;-68
2023/07/30 06:04:01;;;;;;;11.67;9.80;;;17.20;1.00;;;;;;5031791;28;20644;-66
2023/07/30 06:06:29;;;;;;;15.67;11.57;;;17.30;1.00;;;;;;5032377;28;20227;-71
2023/07/30 06:08:55;;;;;;;20.07;10.80;;;17.30;1.00;;;;;;5033310;28;20170;-74
2023/07/30 06:11:21;;;;;;;16.70;11.30;;;17.40;1.00;;;;;;5033391;28;20399;-75
2023/07/30 06:13:47;;;;;;;11.63;10.40;;;17.30;1.00;;;;;;5031729;28;20441;-75
2023/07/30 06:16:13;;;;;;;19.73;11.10;;;17.40;1.00;;;;;;5031324;28;20450;-68
2023/07/30 06:18:39;;;;;;;14.90;11.00;;;17.40;1.00;;;;;;5032226;28;20204;-68
2023/07/30 06:21:04;;;;;;;13.60;10.00;;;17.50;1.00;;;;;;5029414;28;20410;-75
2023/07/30 06:23:30;;;;;;;24.00;11.37;;;17.60;1.00;;;;;;5013245;28;20248;-71
2023/07/30 06:25:56;;;;;;;13.13;9.63;;;17.60;1.00;;;;;;5012347;28;20201;-75
2023/07/30 06:28:21;;;;;;;18.17;11.10;;;17.70;1.00;;;;;;5013207;28;20184;-68
2023/07/30 06:30:47;;;;;;;15.13;10.60;;;17.80;1.00;;;;;;5013450;28;20165;-74
2023/07/30 06:33:13;;;;;;;16.03;9.87;;;17.80;1.00;;;;;;5013074;28;20172;-75
2023/07/30 06:35:38;;;;;;;12.97;10.03;;;17.90;1.00;;;;;;5011946;28;20195;-75
2023/07/30 06:38:08;;;;;;;11.87;10.37;;;17.90;1.00;;;;;;5012874;28;20693;-68
2023/07/30 06:40:34;;;;;;;11.47;8.80;;;18.00;1.00;;;;;;5012882;28;20660;-66
2023/07/30 06:43:00;;;;;;;15.60;9.07;;;18.00;1.00;;;;;;5022076;28;20398;-70
2023/07/30 06:45:26;;;;;;;23.87;9.60;;;18.10;1.00;;;;;;5032024;28;20196;-75
2023/07/30 06:47:51;;;;;;;13.30;9.90;;;18.20;1.00;;;;;;5032186;28;20627;-74
2023/07/30 06:50:17;;;;;;;9.00;7.83;;;18.20;1.00;;;;;;5032425;28;20186;-75
2023/07/30 06:52:43;;;;;;;14.40;7.50;;;18.20;1.00;;;;;;5031307;28;20179;-74
2023/07/30 06:55:09;;;;;;;10.23;6.53;;;18.30;99.90;;;;;;5031900;28;20167;-68
2023/07/30 06:57:34;;;;;;;9.17;7.30;;;18.30;99.90;;;;;;5031436;28;20183;-68
2023/07/30 07:00:00;;;;;;;13.03;7.70;;;18.20;99.90;;;;;;5029113;28;20214;-67
2023/07/30 07:02:26;;;;;;;14.13;8.60;;;18.30;99.90;;;;;;5023518;28;20187;-67
2023/07/30 07:04:54;;;;;;;11.83;8.20;;;18.30;99.90;;;;;;5013813;28;20469;-74
2023/07/30 07:07:20;;;;;;;13.40;8.70;;;18.20;99.90;;;;;;5013439;28;20188;-73
2023/07/30 07:09:46;;;;;;;11.00;7.30;;;18.30;99.90;;;;;;5016318;28;20752;-67
2023/07/30 07:12:11;;;;;;;14.10;8.73;;;18.20;99.90;;;;;;5015800;28;20414;-73
2023/07/30 07:14:37;;;;;;;16.23;7.67;;;18.20;99.90;;;;;;5016435;28;20168;-75
2023/07/30 07:17:03;;;;;;;13.13;8.60;;;18.10;99.90;;;;;;5015377;28;20184;-72
2023/07/30 07:19:28;;;;;;;9.50;7.70;;;18.10;99.90;;;;;;5025799;28;20254;-75
2023/07/30 07:21:54;;;;;;;15.70;8.60;;;18.10;99.90;;;;;;5036004;28;20198;-71
2023/07/30 07:24:20;;;;;;;13.07;7.33;;;18.20;99.90;;;;;;5035884;28;20171;-71
2023/07/30 07:26:45;;;;;;;12.40;7.20;;;18.40;99.90;;;;;;5035037;28;20179;-70
2023/07/30 07:29:11;;;;;;;10.40;6.27;;;18.40;99.90;;;;;;5034312;28;20254;-72
2023/07/30 07:31:37;;;;;;;11.00;8.90;;;18.40;99.90;;;;;;5035065;28;20167;-74
2023/07/30 07:34:02;;;;;;;11.30;6.80;;;18.40;99.90;;;;;;5030989;28;20313;-70
2023/07/30 07:36:28;;;;;;;9.30;6.97;;;18.40;99.90;;;;;;5014787;28;20206;-75
2023/07/30 07:38:54;;;;;;;9.27;7.07;;;18.40;99.90;;;;;;5015726;28;20176;-75
2023/07/30 07:41:19;;;;;;;9.33;6.60;;;18.50;99.90;;;;;;5016110;28;20564;-74
2023/07/30 07:43:47;;;;;;;9.80;6.60;;;18.30;99.90;;;;;;5014910;28;20564;-70
2023/07/30 07:46:13;;;;;;;10.60;5.90;;;18.30;99.90;;;;;;5014964;28;20196;-75
2023/07/30 07:48:43;;;;;;;10.77;6.40;;;18.30;99.90;;;;;;5027721;28;20469;-70
2023/07/30 07:51:10;;;;;;;7.30;5.30;;;18.40;99.90;;;;;;5035672;28;20441;-70
2023/07/30 07:53:36;;;;;;;10.43;6.80;;;18.50;99.90;;;;;;5035485;28;20399;-70
2023/07/30 07:56:02;;;;;;;12.90;5.80;;;18.60;99.90;;;;;;5033662;28;20498;-72
2023/07/30 07:58:28;;;;;;;12.40;6.07;;;18.80;99.90;;;;;;5035278;28;20513;-71
2023/07/30 08:00:55;;;;;;;8.37;5.43;;;19.00;99.90;;;;;;5034749;28;20438;-73
2023/07/30 08:03:21;;;;;;;9.43;5.37;;;19.10;95.40;;;;;;5035374;28;20402;-70
2023/07/30 08:05:48;;;;;;;11.50;7.37;;;19.20;72.90;;;;;;5033673;28;20452;-74
2023/07/30 08:08:14;;;;;;;8.03;5.10;;;19.20;35.40;;;;;;5035046;28;20411;-70
2023/07/30 08:10:42;;;;;;;6.50;4.73;;;19.20;25.60;;;;;;5035204;28;20733;-74
2023/07/30 08:13:08;;;;;;;8.97;5.23;;;19.30;28.70;;;;;;5033262;28;20167;-72
2023/07/30 08:15:33;;;;;;;7.60;5.57;;;19.30;18.80;;;;;;5034174;28;20472;-68
2023/07/30 08:17:59;;;;;;;9.83;5.10;;;19.40;19.00;;;;;;5034588;28;20656;-73
2023/07/30 08:20:28;;;;;;;10.20;5.47;;;19.50;8.70;;;;;;5034006;28;20207;-70
2023/07/30 08:22:53;;;;;;;9.20;5.50;;;19.50;3.60;;;;;;5034418;28;20186;-73
2023/07/30 08:25:19;;;;;;;8.07;4.63;;;19.50;1.00;;;;;;5033514;28;20446;-73
2023/07/30 08:27:45;;;;;;;10.00;5.27;;;19.40;1.00;;;;;;5033377;28;20196;-70
2023/07/30 08:30:11;;;;;;;8.40;5.47;;;19.50;1.00;;;;;;5034893;28;20402;-74
2023/07/30 08:32:37;;;;;;;7.70;5.13;;;19.80;1.00;;;;;;5021339;28;20641;-75
2023/07/30 08:35:04;;;;;;;7.53;5.10;;;20.10;1.00;;;;;;5013885;28;20402;-77
2023/07/30 08:37:29;;;;;;;11.83;4.20;;;20.20;1.00;;;;;;5014700;28;20219;-73
2023/07/30 08:39:55;;;;;;;7.40;4.33;;;20.40;1.00;;;;;;5014889;28;20476;-73
2023/07/30 08:42:22;;;;;;;7.80;4.97;;;20.30;1.00;;;;;;5013095;28;20192;-71
2023/07/30 08:44:47;;;;;;;8.63;4.53;;;20.40;1.00;;;;;;5030426;28;20198;-70
2023/07/30 08:47:13;;;;;;;5.77;4.70;;;20.30;1.00;;;;;;5033088;28;20426;-74
2023/07/30 08:49:39;;;;;;;7.60;4.40;;;20.30;1.00;;;;;;5034411;28;20180;-70
2023/07/30 08:52:09;;;;;;;7.87;4.80;;;20.30;1.00;;;;;;5033146;28;20532;-70
2023/07/30 08:54:36;;;;;;;7.30;4.07;;;20.40;1.00;;;;;;5033736;28;20226;-70
2023/07/30 08:57:03;;;;;;;13.00;4.00;;;20.40;1.00;;;;;;5031859;28;20833;-73
2023/07/30 08:59:33;;;;;;;9.90;4.27;;;20.40;1.00;;;;;;5033857;28;20403;-69
2023/07/30 09:02:01;;;;;;;6.00;3.50;;;20.70;1.00;;;;;;5033787;28;20394;-74
2023/07/30 09:04:32;;;;;;;7.70;3.90;;;20.60;1.00;;;;;;5033836;28;20405;-68
2023/07/30 09:07:00;;;;;;;7.57;4.40;;;20.70;1.00;;;;;;5033227;28;20430;-70
2023/07/30 09:09:26;;;;;;;12.50;3.80;;;20.80;1.00;;;;;;5033172;28;20436;-71
2023/07/30 09:11:54;;;;;;;8.80;3.70;;;20.90;1.00;;;;;;5033908;28;20489;-72
2023/07/30 09:14:21;;;;;;;9.00;4.10;;;21.20;1.00;;;;;;5033094;28;20171;-73
2023/07/30 09:16:46;;;;;;;4.90;3.77;;;21.40;1.00;;;;;;5031621;28;20841;-71
2023/07/30 09:19:17;;;;;;;9.27;3.50;;;21.60;1.00;;;;;;5033605;28;20457;-73
2023/07/30 09:21:43;;;;;;;4.40;3.40;;;21.80;1.00;;;;;;5033455;28;20640;-70
2023/07/30 09:24:09;;;;;;;8.13;3.40;;;22.00;1.00;;;;;;5033660;28;20413;-70
2023/07/30 09:26:46;;;;;;;9.03;3.37;;;22.10;1.00;;;;;;5032726;28;20227;-74
2023/07/30 09:29:12;;;;;;;7.30;3.63;;;21.90;1.00;;;;;;5032440;28;20175;-70
2023/07/30 09:31:50;;;;;;;6.70;3.63;;;21.80;1.00;;;;;;5033535;28;21009;-74
2023/07/30 09:34:20;;;;;;;5.40;3.07;;;21.80;1.00;;;;;;5032574;28;20449;-69
2023/07/30 09:36:47;;;;;;;6.67;3.03;;;21.90;1.00;;;;;;5031727;28;20807;-74
2023/07/30 09:39:30;;;;;;;13.63;2.80;;;21.90;1.00;;;;;;5033091;28;20403;-74
2023/07/30 09:42:01;;;;;;;6.40;3.13;;;21.90;1.00;;;;;;5033016;28;20406;-74
2023/07/30 09:44:27;;;;;;;9.93;3.50;;;21.90;1.00;;;;;;5033538;28;20430;-70
2023/07/30 09:46:53;;;;;;;3.20;2.43;;;22.00;1.00;;;;;;5032525;28;20418;-74
2023/07/30 09:49:18;;;;;;;9.80;3.00;;;22.40;1.00;;;;;;5032841;28;21042;-74
2023/07/30 09:51:44;;;;;;;5.67;3.13;;;22.50;1.00;;;;;;5033158;28;20174;-74
2023/07/30 09:54:13;;;;;;;7.07;2.67;;;22.50;1.00;;;;;;5032518;28;20203;-73
2023/07/30 09:56:40;;;;;;;3.93;2.67;;;22.60;1.00;;;;;;5032174;28;20199;-70
2023/07/30 09:59:07;;;;;;;5.13;3.20;;;22.60;1.00;;;;;;5033460;28;20970;-69
2023/07/30 10:01:38;;;;;;;6.40;3.67;;;22.60;1.00;;;;;;5033029;28;20887;-74
2023/07/30 10:04:11;;;;;;;6.67;3.60;;;22.50;1.00;;;;;;5032679;28;20429;-73
2023/07/30 10:06:42;;;;;;;5.10;2.83;;;22.50;1.00;;;;;;5032238;28;20942;-73
2023/07/30 10:09:11;;;;;;;4.20;3.07;;;22.50;1.00;;;;;;5033294;28;20406;-70
2023/07/30 10:11:38;;;;;;;5.40;2.70;;;22.70;1.00;;;;;;5032611;28;20405;-70
2023/07/30 10:14:04;;;;;;;6.47;3.60;;;22.90;1.00;;;;;;5032731;28;21011;-70
2023/07/30 10:16:30;;;;;;;10.30;3.17;;;22.90;1.00;;;;;;5031957;28;20402;-74
2023/07/30 10:18:57;;;;;;;5.57;2.70;;;23.00;1.00;;;;;;5032974;28;20455;-74
2023/07/30 10:21:29;;;;;;;7.87;3.60;;;23.00;1.00;;;;;;5033141;28;20250;-75
2023/07/30 10:24:00;;;;;;;8.13;4.10;;;22.80;1.00;;;;;;5033011;28;20426;-70
2023/07/30 10:26:35;;;;;;;10.30;3.33;;;22.50;1.00;;;;;;5032182;28;20457;-69
2023/07/30 10:29:17;;;;;;;6.27;4.37;;;22.20;1.00;;;;;;5031705;28;20428;-73
2023/07/30 10:31:51;;;;;;;8.67;3.20;;;21.70;1.00;;;;;;5033037;28;20452;-69
2023/07/30 10:34:17;;;;;;;8.93;3.63;;;20.80;1.00;;;;;;5013935;28;20411;-68
2023/07/30 10:36:48;;;;;;;8.60;4.47;;;20.30;1.00;;;;;;5032142;28;20759;-68
2023/07/30 10:39:34;;;;;;;11.37;4.77;;;20.00;1.00;;;;;;5032083;28;20799;-71
2023/07/30 10:42:00;;;;;;;16.47;4.80;;;19.70;1.00;;;;;;5034330;28;20487;-65
2023/07/30 10:44:28;;;;;;;8.60;5.50;;;19.50;1.00;;;;;;5036669;28;20406;-72
2023/07/30 10:46:55;;;;;;;11.97;5.83;;;19.50;1.00;;;;;;5035301;28;20418;-67
2023/07/30 10:49:22;;;;;;;10.47;5.33;;;19.40;1.00;;;;;;5035897;28;20464;-67
2023/07/30 10:51:48;;;;;;;13.37;7.63;;;19.40;1.00;;;;;;5029252;28;20435;-71
2023/07/30 10:54:15;;;;;;;10.53;6.40;;;19.40;9.80;;;;;;5016747;28;20753;-71
2023/07/30 10:56:42;;;;;;;9.20;5.77;;;19.40;39.60;;;;;;5015689;28;20426;-71
2023/07/30 10:59:08;;;;;;;12.47;6.63;;;19.30;50.30;;;;;;5016830;28;20399;-72
2023/07/30 11:01:42;;;;;;;13.87;6.97;;;19.50;84.30;;;;;;5016699;28;20490;-72
2023/07/30 11:04:13;;;;;;;10.27;6.00;;;19.50;95.50;;;;;;5033618;28;20772;-68
2023/07/30 11:06:39;;;;;;;13.40;6.13;;;19.70;99.90;;;;;;5033530;28;20493;-68
2023/07/30 11:09:05;;;;;;;22.27;7.17;;;19.90;99.90;;;;;;5036197;28;20485;-72
2023/07/30 11:11:31;;;;;;;13.80;5.30;;;19.90;99.90;;;;;;5036055;28;20209;-72
2023/07/30 11:13:58;;;;;;;13.63;6.20;;;20.00;95.70;;;;;;5036193;28;20402;-69
2023/07/30 11:16:24;;;;;;;10.57;5.53;;;20.10;95.70;;;;;;5024111;28;20264;-71
2023/07/30 11:18:50;;;;;;;7.00;5.20;;;20.40;95.90;;;;;;5016399;28;20485;-70
2023/07/30 11:21:17;;;;;;;11.73;5.23;;;20.60;95.90;;;;;;5016244;28;20582;-68
2023/07/30 11:23:45;;;;;;;7.73;4.70;;;20.60;81.80;;;;;;5016435;28;20404;-70
2023/07/30 11:26:16;;;;;;;10.90;4.97;;;20.60;69.50;;;;;;5013139;28;20455;-73
2023/07/30 11:28:43;;;;;;;9.97;5.67;;;20.50;14.10;;;;;;5015937;28;20427;-72
2023/07/30 11:31:17;;;;;;;10.20;4.90;;;20.30;1.00;;;;;;5025141;28;20438;-69
2023/07/30 11:33:47;;;;;;;10.93;5.57;;;20.20;1.00;;;;;;5035152;28;20426;-69
2023/07/30 11:36:21;;;;;;;9.47;4.43;;;20.10;1.00;;;;;;5034465;28;20409;-69
2023/07/30 11:38:47;;;;;;;8.23;4.30;;;20.20;1.00;;;;;;5035650;28;20421;-69
2023/07/30 11:41:14;;;;;;;9.13;4.67;;;20.30;1.00;;;;;;5035873;28;20410;-70
2023/07/30 11:43:43;;;;;;;6.13;3.60;;;20.40;1.00;;;;;;5035268;28;20398;-72
2023/07/30 11:46:14;;;;;;;4.13;3.30;;;20.60;1.00;;;;;;5034087;28;20537;-73
2023/07/30 11:48:41;;;;;;;8.80;4.27;;;20.70;1.00;;;;;;5034734;28;20474;-71
2023/07/30 11:51:18;;;;;;;8.17;3.17;;;21.00;1.00;;;;;;5035917;28;20473;-73
2023/07/30 11:53:49;;;;;;;5.83;3.30;;;21.20;1.00;;;;;;5033809;28;20410;-69
2023/07/30 11:56:16;;;;;;;6.50;3.67;;;21.60;1.00;;;;;;5034483;28;20406;-72
2023/07/30 11:58:42;;;;;;;6.10;3.10;;;22.00;1.00;;;;;;5035398;28;20431;-68
2023/07/30 12:01:08;;;;;;;4.90;2.07;;;22.00;1.00;;;;;;5034862;28;20770;-73
2023/07/30 12:03:33;;;;;;;6.10;2.20;;;22.20;1.00;;;;;;5034154;28;20251;-69
2023/07/30 12:06:05;;;;;;;4.07;1.57;;;22.00;1.00;;;;;;5033082;28;20200;-73
2023/07/30 12:08:33;;;;;;;9.57;2.10;;;21.60;1.00;;;;;;5035228;28;20540;-69
2023/07/30 12:11:03;;;;;;;8.93;2.23;;;21.40;1.00;;;;;;5034013;28;20467;-73
2023/07/30 12:13:29;;;;;;;2.97;2.07;;;21.50;1.00;;;;;;5035097;28;20399;-73
2023/07/30 12:15:56;;;;;;;5.50;2.40;;;21.60;1.00;;;;;;5033150;28;20480;-71
2023/07/30 12:18:26;;;;;;;7.00;2.03;;;21.60;1.00;;;;;;5014838;28;20207;-70
2023/07/30 12:20:53;;;;;;;6.00;1.80;;;21.60;1.00;;;;;;5015080;28;20419;-73
2023/07/30 12:23:19;;;;;;;2.33;1.70;;;22.20;1.00;;;;;;5013977;28;20510;-70
2023/07/30 12:25:46;;;;;;;6.90;2.20;;;22.80;1.00;;;;;;5014116;28;20447;-73
2023/07/30 12:28:12;;;;;;;4.33;1.90;;;23.30;1.00;;;;;;5015003;28;20420;-74
2023/07/30 12:30:38;;;;;;;4.30;1.90;;;23.70;99.90;;;;;;5014963;28;20505;-68
2023/07/30 12:33:04;;;;;;;3.70;1.57;;;23.70;99.90;;;;;;5014738;28;20831;-69
2023/07/30 12:35:33;;;;;;;3.43;1.20;;;23.60;99.90;;;;;;5013511;28;20255;-66
2023/07/30 12:37:59;;;;;;;5.57;1.97;;;24.10;99.90;;;;;;5016994;28;20517;-65
2023/07/30 12:40:25;;;;;;;4.03;2.27;;;24.30;99.90;;;;;;5020027;28;20430;-70
2023/07/30 12:42:51;;;;;;;2.87;1.80;;;24.50;99.90;;;;;;5034314;28;20464;-69